DGVOS EDDK-EDDG
Flight info
| Callsign | DGVOS |
|---|---|
| Flight time | 1h 6m |
| Altitude | |
| Route | |
| Aircraft | DA42 |
Departure
| Time | 2026-05-08 19:07 |
|---|---|
| Airport | Cologne Bonn Airport (EDDK) |
Arrival
| Time | 2026-05-08 20:13 |
|---|---|
| Airport | Münster Osnabrück Airport (EDDG) |
| Time | Latitude | Longitude | Altitude | Speed | Heading |
|---|---|---|---|---|---|
| 2026-05-08 18:56 | 50.87218 | 7.12359 | 227 ft | 0 kts | 182° |
| 2026-05-08 18:59 | 50.87217 | 7.12347 | 227 ft | 5 kts | 317° |
| 2026-05-08 19:00 | 50.87231 | 7.12322 | 227 ft | 5 kts | 286° |
| 2026-05-08 19:00 | 50.87198 | 7.12264 | 227 ft | 7 kts | 201° |
| 2026-05-08 19:00 | 50.87153 | 7.12234 | 227 ft | 7 kts | 210° |
| 2026-05-08 19:00 | 50.87132 | 7.12202 | 228 ft | 0 kts | 223° |
| 2026-05-08 19:02 | 50.87122 | 7.12186 | 228 ft | 7 kts | 227° |
| 2026-05-08 19:03 | 50.87085 | 7.12122 | 229 ft | 7 kts | 227° |
| 2026-05-08 19:03 | 50.87064 | 7.12116 | 229 ft | 0 kts | 136° |
| 2026-05-08 19:05 | 50.87061 | 7.12121 | 229 ft | 6 kts | 137° |
| 2026-05-08 19:06 | 50.86853 | 7.12422 | 229 ft | 70 kts | 137° |
| 2026-05-08 19:06 | 50.86408 | 7.13066 | 307 ft | 94 kts | 135° |
| 2026-05-08 19:06 | 50.86282 | 7.13958 | 548 ft | 96 kts | 52° |
| 2026-05-08 19:06 | 50.86887 | 7.14332 | 820 ft | 97 kts | 9° |
| 2026-05-08 19:07 | 50.87590 | 7.14476 | 1075 ft | 105 kts | 7° |
| 2026-05-08 19:07 | 50.88325 | 7.14594 | 1298 ft | 108 kts | 6° |
| 2026-05-08 19:07 | 50.89076 | 7.14714 | 1494 ft | 112 kts | 6° |
| 2026-05-08 19:07 | 50.89858 | 7.14816 | 1726 ft | 113 kts | 5° |
| 2026-05-08 19:08 | 50.90648 | 7.14895 | 1930 ft | 115 kts | 4° |
| 2026-05-08 19:08 | 50.91445 | 7.15034 | 2160 ft | 114 kts | 13° |
| 2026-05-08 19:08 | 50.92209 | 7.15313 | 2427 ft | 111 kts | 14° |
| 2026-05-08 19:08 | 50.92991 | 7.15684 | 2489 ft | 126 kts | 20° |
| 2026-05-08 19:09 | 50.93859 | 7.16186 | 2497 ft | 138 kts | 21° |
| 2026-05-08 19:09 | 50.94790 | 7.16730 | 2500 ft | 146 kts | 21° |
| 2026-05-08 19:09 | 50.95748 | 7.17322 | 2502 ft | 150 kts | 24° |
| 2026-05-08 19:09 | 50.96715 | 7.17984 | 2503 ft | 152 kts | 24° |
| 2026-05-08 19:10 | 50.97694 | 7.18653 | 2501 ft | 154 kts | 24° |
| 2026-05-08 19:10 | 50.98680 | 7.19326 | 2503 ft | 155 kts | 24° |
| 2026-05-08 19:10 | 50.99659 | 7.19996 | 2503 ft | 156 kts | 24° |
| 2026-05-08 19:10 | 51.00665 | 7.20686 | 2504 ft | 159 kts | 24° |
| 2026-05-08 19:11 | 51.01682 | 7.21384 | 2505 ft | 160 kts | 24° |
| 2026-05-08 19:11 | 51.02709 | 7.22076 | 2503 ft | 161 kts | 19° |
| 2026-05-08 19:11 | 51.03802 | 7.22439 | 2505 ft | 161 kts | 10° |
| 2026-05-08 19:11 | 51.04909 | 7.22733 | 2505 ft | 162 kts | 10° |
| 2026-05-08 19:12 | 51.06019 | 7.23027 | 2503 ft | 162 kts | 10° |
| 2026-05-08 19:12 | 51.07137 | 7.23320 | 2505 ft | 163 kts | 10° |
| 2026-05-08 19:12 | 51.08255 | 7.23613 | 2506 ft | 163 kts | 10° |
| 2026-05-08 19:12 | 51.09372 | 7.23906 | 2554 ft | 161 kts | 10° |
| 2026-05-08 19:13 | 51.10442 | 7.24184 | 2679 ft | 156 kts | 10° |
| 2026-05-08 19:13 | 51.11499 | 7.24455 | 2822 ft | 152 kts | 10° |
| 2026-05-08 19:13 | 51.12515 | 7.24690 | 3070 ft | 144 kts | 10° |
| 2026-05-08 19:13 | 51.13486 | 7.24910 | 3320 ft | 138 kts | 9° |
| 2026-05-08 19:14 | 51.14422 | 7.25137 | 3566 ft | 135 kts | 10° |
| 2026-05-08 19:14 | 51.15356 | 7.25368 | 3767 ft | 136 kts | 10° |
| 2026-05-08 19:14 | 51.16296 | 7.25609 | 3972 ft | 137 kts | 11° |
| 2026-05-08 19:14 | 51.17242 | 7.25850 | 4177 ft | 138 kts | 11° |
| 2026-05-08 19:15 | 51.18197 | 7.26096 | 4383 ft | 140 kts | 10° |
| 2026-05-08 19:15 | 51.19171 | 7.26352 | 4502 ft | 147 kts | 10° |
| 2026-05-08 19:15 | 51.20208 | 7.26629 | 4506 ft | 158 kts | 10° |
| 2026-05-08 19:15 | 51.21312 | 7.26928 | 4511 ft | 164 kts | 10° |
| 2026-05-08 19:16 | 51.22448 | 7.27234 | 4515 ft | 167 kts | 10° |
| 2026-05-08 19:16 | 51.23605 | 7.27544 | 4515 ft | 169 kts | 10° |
| 2026-05-08 19:16 | 51.24769 | 7.27858 | 4497 ft | 171 kts | 10° |
| 2026-05-08 19:16 | 51.25956 | 7.28179 | 4368 ft | 174 kts | 10° |
| 2026-05-08 19:17 | 51.27157 | 7.28504 | 4234 ft | 175 kts | 10° |
| 2026-05-08 19:17 | 51.28357 | 7.28827 | 4106 ft | 175 kts | 10° |
| 2026-05-08 19:17 | 51.29561 | 7.29143 | 3979 ft | 175 kts | 9° |
| 2026-05-08 19:17 | 51.30763 | 7.29459 | 3855 ft | 175 kts | 10° |
| 2026-05-08 19:18 | 51.31948 | 7.29772 | 3729 ft | 174 kts | 10° |
| 2026-05-08 19:18 | 51.33144 | 7.30086 | 3604 ft | 174 kts | 10° |
| 2026-05-08 19:18 | 51.34339 | 7.30393 | 3478 ft | 174 kts | 10° |
| 2026-05-08 19:18 | 51.35526 | 7.30693 | 3418 ft | 169 kts | 10° |
| 2026-05-08 19:19 | 51.36683 | 7.30828 | 3422 ft | 166 kts | 0° |
| 2026-05-08 19:19 | 51.37825 | 7.30731 | 3420 ft | 163 kts | 356° |
| 2026-05-08 19:19 | 51.38936 | 7.30589 | 3418 ft | 157 kts | 356° |
| 2026-05-08 19:19 | 51.40003 | 7.30446 | 3413 ft | 152 kts | 356° |
| 2026-05-08 19:20 | 51.41049 | 7.30306 | 3412 ft | 150 kts | 356° |
| 2026-05-08 19:20 | 51.41385 | 7.30261 | 3415 ft | 149 kts | 356° |
| 2026-05-08 19:20 | 51.43086 | 7.30034 | 3409 ft | 147 kts | 356° |
| 2026-05-08 19:20 | 51.44104 | 7.29898 | 3406 ft | 146 kts | 356° |
| 2026-05-08 19:21 | 51.45110 | 7.29760 | 3410 ft | 145 kts | 356° |
| 2026-05-08 19:21 | 51.46117 | 7.29622 | 3409 ft | 145 kts | 356° |
| 2026-05-08 19:21 | 51.47120 | 7.29476 | 3420 ft | 145 kts | 356° |
| 2026-05-08 19:21 | 51.48120 | 7.29328 | 3409 ft | 144 kts | 356° |
| 2026-05-08 19:22 | 51.49118 | 7.29184 | 3407 ft | 144 kts | 355° |
| 2026-05-08 19:22 | 51.50117 | 7.29046 | 3407 ft | 144 kts | 356° |
| 2026-05-08 19:22 | 51.51117 | 7.28912 | 3409 ft | 144 kts | 1° |
| 2026-05-08 19:22 | 51.51938 | 7.29212 | 3413 ft | 143 kts | 20° |
| 2026-05-08 19:23 | 51.52480 | 7.29503 | 3412 ft | 143 kts | 20° |
| 2026-05-08 19:23 | 51.53423 | 7.30019 | 3411 ft | 144 kts | 20° |
| 2026-05-08 19:23 | 51.54380 | 7.30546 | 3412 ft | 147 kts | 20° |
| 2026-05-08 19:23 | 51.55346 | 7.31114 | 3412 ft | 149 kts | 21° |
| 2026-05-08 19:24 | 51.56323 | 7.31686 | 3413 ft | 150 kts | 21° |
| 2026-05-08 19:24 | 51.57302 | 7.32257 | 3414 ft | 150 kts | 21° |
| 2026-05-08 19:24 | 51.58287 | 7.32826 | 3418 ft | 151 kts | 22° |
| 2026-05-08 19:24 | 51.59277 | 7.33380 | 3419 ft | 150 kts | 21° |
| 2026-05-08 19:25 | 51.60263 | 7.33938 | 3417 ft | 150 kts | 21° |
| 2026-05-08 19:25 | 51.61239 | 7.34484 | 3422 ft | 151 kts | 21° |
| 2026-05-08 19:25 | 51.62230 | 7.35037 | 3417 ft | 150 kts | 21° |
| 2026-05-08 19:25 | 51.63215 | 7.35592 | 3417 ft | 150 kts | 22° |
| 2026-05-08 19:26 | 51.64196 | 7.36149 | 3416 ft | 150 kts | 21° |
| 2026-05-08 19:26 | 51.65181 | 7.36710 | 3417 ft | 150 kts | 21° |
| 2026-05-08 19:26 | 51.66169 | 7.37263 | 3417 ft | 150 kts | 21° |
| 2026-05-08 19:26 | 51.67159 | 7.37806 | 3421 ft | 151 kts | 21° |
| 2026-05-08 19:27 | 51.68153 | 7.38355 | 3424 ft | 151 kts | 20° |
| 2026-05-08 19:27 | 51.69145 | 7.38912 | 3423 ft | 151 kts | 21° |
| 2026-05-08 19:27 | 51.70123 | 7.39468 | 3426 ft | 151 kts | 21° |
| 2026-05-08 19:27 | 51.71115 | 7.40022 | 3425 ft | 151 kts | 21° |
| 2026-05-08 19:28 | 51.72104 | 7.40569 | 3420 ft | 150 kts | 20° |
| 2026-05-08 19:28 | 51.73088 | 7.41122 | 3419 ft | 150 kts | 20° |
| 2026-05-08 19:28 | 51.74072 | 7.41677 | 3419 ft | 150 kts | 21° |
| 2026-05-08 19:28 | 51.75055 | 7.42236 | 3417 ft | 150 kts | 20° |
| 2026-05-08 19:29 | 51.76037 | 7.42789 | 3419 ft | 150 kts | 21° |
| 2026-05-08 19:29 | 51.77027 | 7.43326 | 3424 ft | 150 kts | 20° |
| 2026-05-08 19:29 | 51.78014 | 7.43871 | 3429 ft | 150 kts | 20° |
| 2026-05-08 19:29 | 51.78988 | 7.44417 | 3426 ft | 150 kts | 20° |
| 2026-05-08 19:30 | 51.79978 | 7.44969 | 3425 ft | 150 kts | 20° |
| 2026-05-08 19:30 | 51.80964 | 7.45519 | 3420 ft | 150 kts | 21° |
| 2026-05-08 19:30 | 51.81951 | 7.46058 | 3425 ft | 149 kts | 22° |
| 2026-05-08 19:30 | 51.82932 | 7.46600 | 3420 ft | 149 kts | 21° |
| 2026-05-08 19:31 | 51.83917 | 7.47148 | 3425 ft | 150 kts | 21° |
| 2026-05-08 19:31 | 51.84905 | 7.47692 | 3426 ft | 150 kts | 21° |
| 2026-05-08 19:31 | 51.85895 | 7.48230 | 3432 ft | 150 kts | 20° |
| 2026-05-08 19:31 | 51.86886 | 7.48771 | 3428 ft | 150 kts | 21° |
| 2026-05-08 19:32 | 51.87541 | 7.49131 | 3434 ft | 150 kts | 21° |
| 2026-05-08 19:32 | 51.88844 | 7.49860 | 3428 ft | 149 kts | 21° |
| 2026-05-08 19:32 | 51.89828 | 7.50405 | 3426 ft | 150 kts | 21° |
| 2026-05-08 19:32 | 51.90815 | 7.50944 | 3427 ft | 150 kts | 21° |
| 2026-05-08 19:33 | 51.91802 | 7.51491 | 3437 ft | 150 kts | 21° |
| 2026-05-08 19:33 | 51.92795 | 7.52032 | 3434 ft | 151 kts | 21° |
| 2026-05-08 19:33 | 51.93454 | 7.52396 | 3437 ft | 151 kts | 21° |
| 2026-05-08 19:33 | 51.94445 | 7.52947 | 3430 ft | 151 kts | 22° |
| 2026-05-08 19:34 | 51.95426 | 7.53538 | 3430 ft | 150 kts | 26° |
| 2026-05-08 19:34 | 51.96381 | 7.54211 | 3428 ft | 149 kts | 26° |
| 2026-05-08 19:34 | 51.97635 | 7.55118 | 3432 ft | 149 kts | 26° |
| 2026-05-08 19:34 | 51.98281 | 7.55589 | 3385 ft | 152 kts | 26° |
| 2026-05-08 19:35 | 51.99246 | 7.56283 | 3307 ft | 153 kts | 27° |
| 2026-05-08 19:35 | 52.00213 | 7.56971 | 3056 ft | 155 kts | 26° |
| 2026-05-08 19:35 | 52.01196 | 7.57689 | 2800 ft | 154 kts | 28° |
| 2026-05-08 19:35 | 52.02139 | 7.58413 | 2543 ft | 147 kts | 28° |
| 2026-05-08 19:36 | 52.03062 | 7.59112 | 2282 ft | 145 kts | 28° |
| 2026-05-08 19:36 | 52.03969 | 7.59797 | 2029 ft | 143 kts | 28° |
| 2026-05-08 19:36 | 52.04847 | 7.60431 | 1995 ft | 134 kts | 28° |
| 2026-05-08 19:36 | 52.05692 | 7.61042 | 1992 ft | 132 kts | 28° |
| 2026-05-08 19:37 | 52.06542 | 7.61655 | 2000 ft | 136 kts | 28° |
| 2026-05-08 19:37 | 52.07427 | 7.62290 | 2000 ft | 141 kts | 28° |
| 2026-05-08 19:37 | 52.08310 | 7.62941 | 1998 ft | 142 kts | 31° |
| 2026-05-08 19:37 | 52.08926 | 7.64114 | 1999 ft | 139 kts | 70° |
| 2026-05-08 19:38 | 52.09272 | 7.65606 | 1999 ft | 143 kts | 73° |
| 2026-05-08 19:38 | 52.09607 | 7.67144 | 2000 ft | 145 kts | 73° |
| 2026-05-08 19:38 | 52.09950 | 7.68698 | 1999 ft | 147 kts | 73° |
| 2026-05-08 19:38 | 52.10296 | 7.70264 | 2000 ft | 147 kts | 73° |
| 2026-05-08 19:39 | 52.10642 | 7.71830 | 2001 ft | 147 kts | 73° |
| 2026-05-08 19:39 | 52.10988 | 7.73402 | 2001 ft | 148 kts | 73° |
| 2026-05-08 19:39 | 52.11339 | 7.74978 | 1998 ft | 148 kts | 73° |
| 2026-05-08 19:39 | 52.11661 | 7.76484 | 1996 ft | 139 kts | 74° |
| 2026-05-08 19:40 | 52.11984 | 7.77931 | 1995 ft | 134 kts | 73° |
| 2026-05-08 19:40 | 52.12303 | 7.79322 | 1989 ft | 124 kts | 72° |
| 2026-05-08 19:40 | 52.12596 | 7.80599 | 1988 ft | 118 kts | 73° |
| 2026-05-08 19:40 | 52.12886 | 7.81837 | 1984 ft | 116 kts | 71° |
| 2026-05-08 19:41 | 52.13463 | 7.82766 | 1986 ft | 128 kts | 27° |
| 2026-05-08 19:41 | 52.14408 | 7.82780 | 1991 ft | 149 kts | 342° |
| 2026-05-08 19:41 | 52.15199 | 7.81642 | 1991 ft | 160 kts | 297° |
| 2026-05-08 19:41 | 52.15527 | 7.79890 | 1995 ft | 164 kts | 282° |
| 2026-05-08 19:42 | 52.15700 | 7.78044 | 1999 ft | 166 kts | 271° |
| 2026-05-08 19:42 | 52.15734 | 7.76156 | 2001 ft | 168 kts | 269° |
| 2026-05-08 19:42 | 52.15788 | 7.74280 | 1999 ft | 169 kts | 274° |
| 2026-05-08 19:42 | 52.16103 | 7.72456 | 1992 ft | 170 kts | 302° |
| 2026-05-08 19:43 | 52.16895 | 7.71043 | 1988 ft | 170 kts | 326° |
| 2026-05-08 19:43 | 52.17927 | 7.70136 | 1987 ft | 169 kts | 338° |
| 2026-05-08 19:43 | 52.19017 | 7.69455 | 1987 ft | 167 kts | 344° |
| 2026-05-08 19:43 | 52.20124 | 7.68883 | 1988 ft | 167 kts | 347° |
| 2026-05-08 19:44 | 52.21248 | 7.68384 | 1989 ft | 168 kts | 348° |
| 2026-05-08 19:44 | 52.22373 | 7.67896 | 1988 ft | 167 kts | 348° |
| 2026-05-08 19:44 | 52.23463 | 7.67240 | 1981 ft | 170 kts | 326° |
| 2026-05-08 19:44 | 52.24134 | 7.65689 | 1986 ft | 170 kts | 290° |
| 2026-05-08 19:45 | 52.24520 | 7.63893 | 1987 ft | 170 kts | 288° |
| 2026-05-08 19:45 | 52.24896 | 7.62064 | 1988 ft | 170 kts | 288° |
| 2026-05-08 19:45 | 52.25268 | 7.60226 | 1988 ft | 171 kts | 287° |
| 2026-05-08 19:45 | 52.25302 | 7.58327 | 1981 ft | 170 kts | 249° |
| 2026-05-08 19:46 | 52.24750 | 7.56637 | 1987 ft | 170 kts | 237° |
| 2026-05-08 19:46 | 52.24168 | 7.54947 | 1988 ft | 171 kts | 237° |
| 2026-05-08 19:46 | 52.22520 | 7.50178 | 2244 ft | 158 kts | 237° |
| 2026-05-08 19:47 | 52.21984 | 7.48656 | 2502 ft | 152 kts | 237° |
| 2026-05-08 19:47 | 52.21406 | 7.47037 | 2780 ft | 147 kts | 237° |
| 2026-05-08 19:47 | 52.20826 | 7.45421 | 2984 ft | 151 kts | 237° |
| 2026-05-08 19:47 | 52.20125 | 7.43606 | 2987 ft | 163 kts | 232° |
| 2026-05-08 19:48 | 52.19361 | 7.42181 | 2988 ft | 161 kts | 224° |
| 2026-05-08 19:48 | 52.18633 | 7.40944 | 2983 ft | 144 kts | 223° |
| 2026-05-08 19:48 | 52.17997 | 7.39760 | 2985 ft | 134 kts | 229° |
| 2026-05-08 19:48 | 52.17493 | 7.38528 | 2989 ft | 126 kts | 240° |
| 2026-05-08 19:49 | 52.17131 | 7.37359 | 2987 ft | 109 kts | 241° |
| 2026-05-08 19:49 | 52.16792 | 7.36263 | 2983 ft | 107 kts | 241° |
| 2026-05-08 19:49 | 52.16459 | 7.35185 | 2985 ft | 106 kts | 241° |
| 2026-05-08 19:49 | 52.16132 | 7.34110 | 2982 ft | 106 kts | 241° |
| 2026-05-08 19:50 | 52.15812 | 7.33051 | 2987 ft | 108 kts | 241° |
| 2026-05-08 19:50 | 52.15468 | 7.31916 | 2989 ft | 114 kts | 241° |
| 2026-05-08 19:50 | 52.15101 | 7.30702 | 2990 ft | 131 kts | 241° |
| 2026-05-08 19:50 | 52.14655 | 7.29261 | 2992 ft | 152 kts | 241° |
| 2026-05-08 19:51 | 52.14276 | 7.27650 | 3075 ft | 146 kts | 263° |
| 2026-05-08 19:51 | 52.13899 | 7.26047 | 2872 ft | 149 kts | 227° |
| 2026-05-08 19:51 | 52.13278 | 7.24751 | 2817 ft | 143 kts | 242° |
| 2026-05-08 19:51 | 52.13116 | 7.23380 | 2820 ft | 125 kts | 261° |
| 2026-05-08 19:52 | 52.12959 | 7.21995 | 2953 ft | 119 kts | 258° |
| 2026-05-08 19:52 | 52.12607 | 7.20706 | 2942 ft | 131 kts | 226° |
| 2026-05-08 19:52 | 52.12041 | 7.19611 | 2972 ft | 127 kts | 234° |
| 2026-05-08 19:52 | 52.11619 | 7.18291 | 2958 ft | 141 kts | 245° |
| 2026-05-08 19:53 | 52.11259 | 7.16873 | 2950 ft | 127 kts | 246° |
| 2026-05-08 19:53 | 52.10894 | 7.15525 | 2937 ft | 130 kts | 244° |
| 2026-05-08 19:53 | 52.10539 | 7.14204 | 2925 ft | 125 kts | 244° |
| 2026-05-08 19:53 | 52.09916 | 7.13703 | 2700 ft | 139 kts | 121° |
| 2026-05-08 19:54 | 52.09875 | 7.15273 | 2765 ft | 144 kts | 87° |
| 2026-05-08 19:54 | 52.09943 | 7.16921 | 2726 ft | 144 kts | 87° |
| 2026-05-08 19:54 | 52.10008 | 7.18566 | 2608 ft | 148 kts | 87° |
| 2026-05-08 19:54 | 52.10149 | 7.20223 | 2492 ft | 149 kts | 72° |
| 2026-05-08 19:55 | 52.10524 | 7.21762 | 2492 ft | 144 kts | 69° |
| 2026-05-08 19:55 | 52.10894 | 7.23236 | 2489 ft | 142 kts | 69° |
| 2026-05-08 19:55 | 52.11264 | 7.24701 | 2487 ft | 138 kts | 69° |
| 2026-05-08 19:55 | 52.11627 | 7.26144 | 2486 ft | 137 kts | 69° |
| 2026-05-08 19:56 | 52.11992 | 7.27579 | 2489 ft | 138 kts | 69° |
| 2026-05-08 19:56 | 52.12364 | 7.29037 | 2494 ft | 141 kts | 69° |
| 2026-05-08 19:56 | 52.12740 | 7.30517 | 2495 ft | 143 kts | 69° |
| 2026-05-08 19:56 | 52.13122 | 7.32016 | 2493 ft | 144 kts | 69° |
| 2026-05-08 19:57 | 52.13511 | 7.33522 | 2492 ft | 145 kts | 69° |
| 2026-05-08 19:57 | 52.13901 | 7.35035 | 2494 ft | 145 kts | 69° |
| 2026-05-08 19:57 | 52.14282 | 7.36521 | 2474 ft | 140 kts | 69° |
| 2026-05-08 19:57 | 52.14663 | 7.38001 | 2346 ft | 143 kts | 69° |
| 2026-05-08 19:58 | 52.15041 | 7.39469 | 2213 ft | 143 kts | 70° |
| 2026-05-08 19:58 | 52.15434 | 7.40957 | 2086 ft | 143 kts | 69° |
| 2026-05-08 19:58 | 52.15833 | 7.42440 | 2002 ft | 141 kts | 69° |
| 2026-05-08 19:58 | 52.16219 | 7.43867 | 2000 ft | 135 kts | 69° |
| 2026-05-08 19:59 | 52.16598 | 7.45241 | 1997 ft | 132 kts | 69° |
| 2026-05-08 19:59 | 52.16975 | 7.46601 | 1998 ft | 132 kts | 69° |
| 2026-05-08 19:59 | 52.17354 | 7.47970 | 2000 ft | 133 kts | 69° |
| 2026-05-08 19:59 | 52.17734 | 7.49350 | 2000 ft | 134 kts | 69° |
| 2026-05-08 20:00 | 52.18108 | 7.50739 | 1992 ft | 134 kts | 71° |
| 2026-05-08 20:00 | 52.18309 | 7.52204 | 1993 ft | 132 kts | 84° |
| 2026-05-08 20:00 | 52.18378 | 7.53675 | 1988 ft | 132 kts | 101° |
| 2026-05-08 20:00 | 52.17871 | 7.54863 | 1991 ft | 133 kts | 147° |
| 2026-05-08 20:01 | 52.17024 | 7.55459 | 1997 ft | 131 kts | 156° |
| 2026-05-08 20:01 | 52.16192 | 7.55988 | 1995 ft | 127 kts | 156° |
| 2026-05-08 20:01 | 52.15378 | 7.56499 | 1993 ft | 124 kts | 156° |
| 2026-05-08 20:01 | 52.14574 | 7.56990 | 1882 ft | 125 kts | 156° |
| 2026-05-08 20:02 | 52.13770 | 7.57492 | 1725 ft | 122 kts | 155° |
| 2026-05-08 20:02 | 52.12992 | 7.58020 | 1538 ft | 119 kts | 154° |
| 2026-05-08 20:02 | 52.12257 | 7.58542 | 1360 ft | 117 kts | 148° |
| 2026-05-08 20:02 | 52.11781 | 7.59590 | 1164 ft | 122 kts | 103° |
| 2026-05-08 20:03 | 52.11889 | 7.60952 | 967 ft | 130 kts | 69° |
| 2026-05-08 20:03 | 52.12177 | 7.62323 | 755 ft | 124 kts | 74° |
| 2026-05-08 20:03 | 52.12435 | 7.63581 | 625 ft | 113 kts | 71° |
| 2026-05-08 20:03 | 52.12694 | 7.64807 | 464 ft | 116 kts | 70° |
| 2026-05-08 20:04 | 52.12949 | 7.66047 | 321 ft | 117 kts | 69° |
| 2026-05-08 20:04 | 52.13227 | 7.67351 | 188 ft | 132 kts | 69° |
| 2026-05-08 20:04 | 52.13543 | 7.68851 | 211 ft | 146 kts | 69° |
| 2026-05-08 20:04 | 52.13946 | 7.70193 | 767 ft | 110 kts | 27° |
| 2026-05-08 20:05 | 52.14695 | 7.69975 | 1083 ft | 120 kts | 341° |
| 2026-05-08 20:05 | 52.15498 | 7.69386 | 1169 ft | 129 kts | 327° |
| 2026-05-08 20:05 | 52.15704 | 7.68066 | 1267 ft | 127 kts | 251° |
| 2026-05-08 20:05 | 52.15462 | 7.66705 | 1273 ft | 126 kts | 250° |
| 2026-05-08 20:06 | 52.15221 | 7.65307 | 1197 ft | 128 kts | 252° |
| 2026-05-08 20:06 | 52.14996 | 7.63905 | 1119 ft | 128 kts | 253° |
| 2026-05-08 20:06 | 52.14744 | 7.62540 | 1022 ft | 126 kts | 251° |
| 2026-05-08 20:06 | 52.14424 | 7.61244 | 948 ft | 117 kts | 229° |
| 2026-05-08 20:07 | 52.13748 | 7.60871 | 808 ft | 105 kts | 160° |
| 2026-05-08 20:07 | 52.13086 | 7.61210 | 802 ft | 97 kts | 157° |
| 2026-05-08 20:07 | 52.12499 | 7.61558 | 815 ft | 86 kts | 149° |
| 2026-05-08 20:07 | 52.12223 | 7.62323 | 714 ft | 82 kts | 85° |
| 2026-05-08 20:08 | 52.12358 | 7.63227 | 635 ft | 83 kts | 69° |
| 2026-05-08 20:08 | 52.12544 | 7.64120 | 532 ft | 84 kts | 71° |
| 2026-05-08 20:08 | 52.12734 | 7.65015 | 454 ft | 83 kts | 69° |
| 2026-05-08 20:08 | 52.12926 | 7.65929 | 345 ft | 85 kts | 68° |
| 2026-05-08 20:09 | 52.13116 | 7.66822 | 220 ft | 81 kts | 68° |
| 2026-05-08 20:09 | 52.13286 | 7.67633 | 161 ft | 77 kts | 72° |
| 2026-05-08 20:09 | 52.13486 | 7.68548 | 321 ft | 91 kts | 68° |
| 2026-05-08 20:09 | 52.13705 | 7.69633 | 410 ft | 115 kts | 72° |
| 2026-05-08 20:10 | 52.14113 | 7.70710 | 727 ft | 116 kts | 21° |
| 2026-05-08 20:10 | 52.14877 | 7.70555 | 1124 ft | 117 kts | 341° |
| 2026-05-08 20:10 | 52.15659 | 7.69931 | 1177 ft | 139 kts | 321° |
| 2026-05-08 20:10 | 52.15821 | 7.68445 | 1162 ft | 142 kts | 249° |
| 2026-05-08 20:11 | 52.15562 | 7.66858 | 1164 ft | 150 kts | 255° |
| 2026-05-08 20:11 | 52.15321 | 7.65201 | 1168 ft | 150 kts | 254° |
| 2026-05-08 20:11 | 52.15102 | 7.63568 | 1129 ft | 146 kts | 252° |
| 2026-05-08 20:11 | 52.14372 | 7.62737 | 898 ft | 135 kts | 169° |
| 2026-05-08 20:12 | 52.13532 | 7.63146 | 749 ft | 112 kts | 157° |
| 2026-05-08 20:12 | 52.12897 | 7.63563 | 600 ft | 91 kts | 142° |
| 2026-05-08 20:12 | 52.12674 | 7.64446 | 484 ft | 87 kts | 84° |
| 2026-05-08 20:12 | 52.12819 | 7.65390 | 396 ft | 87 kts | 71° |
| 2026-05-08 20:13 | 52.13009 | 7.66308 | 298 ft | 85 kts | 69° |
| 2026-05-08 20:13 | 52.13195 | 7.67204 | 167 ft | 78 kts | 69° |
| 2026-05-08 20:13 | 52.13334 | 7.67859 | 161 ft | 53 kts | 72° |
| 2026-05-08 20:13 | 52.13393 | 7.68202 | 163 ft | 14 kts | 120° |
| 2026-05-08 20:14 | 52.13320 | 7.68284 | 162 ft | 9 kts | 160° |
| 2026-05-08 20:14 | 52.13289 | 7.68301 | 162 ft | 0 kts | 163° |
| 2026-05-08 20:14 | 52.13276 | 7.68310 | 162 ft | 8 kts | 158° |
| 2026-05-08 20:14 | 52.13216 | 7.68342 | 162 ft | 10 kts | 161° |
| 2026-05-08 20:15 | 52.13186 | 7.68278 | 162 ft | 9 kts | 254° |
| 2026-05-08 20:15 | 52.13158 | 7.68204 | 162 ft | 8 kts | 181° |
| 2026-05-08 20:15 | 52.13140 | 7.68238 | 162 ft | 3 kts | 90° |
| 2026-05-08 20:15 | 52.13140 | 7.68243 | 162 ft | 0 kts | 92° |